createdAt,value
2022-10-19T00:01:08.805Z,99.90
2022-10-19T00:03:36.964Z,99.90
2022-10-19T00:06:25.148Z,99.90
2022-10-19T00:08:56.871Z,99.90
2022-10-19T00:11:24.372Z,99.90
2022-10-19T00:13:52.978Z,99.90
2022-10-19T00:16:21.151Z,99.90
2022-10-19T00:18:48.075Z,99.90
2022-10-19T00:21:17.812Z,99.90
2022-10-19T00:23:45.636Z,99.90
2022-10-19T00:26:13.300Z,99.90
2022-10-19T00:28:40.842Z,99.90
2022-10-19T00:31:11.162Z,99.90
2022-10-19T00:33:38.326Z,99.90
2022-10-19T00:36:06.330Z,99.90
2022-10-19T00:38:33.313Z,99.90
2022-10-19T00:41:00.202Z,99.90
2022-10-19T00:43:30.442Z,99.90
2022-10-19T00:45:57.382Z,99.90
2022-10-19T00:48:32.468Z,99.90
2022-10-19T00:51:00.956Z,99.90
2022-10-19T00:53:30.502Z,99.90
2022-10-19T00:55:58.462Z,99.90
2022-10-19T00:58:25.322Z,99.90
2022-10-19T01:00:52.787Z,99.90
2022-10-19T01:03:20.596Z,99.90
2022-10-19T01:05:48.048Z,99.90
2022-10-19T01:08:15.143Z,99.90
2022-10-19T01:11:02.819Z,99.90
2022-10-19T01:14:23.586Z,99.90
2022-10-19T01:17:08.085Z,99.90
2022-10-19T01:20:11.273Z,99.90
2022-10-19T01:22:56.244Z,99.90
2022-10-19T01:25:45.224Z,99.90
2022-10-19T01:28:58.013Z,99.90
2022-10-19T01:31:48.533Z,99.90
2022-10-19T01:34:18.125Z,99.90
2022-10-19T01:36:56.914Z,99.90
2022-10-19T01:39:44.228Z,99.90
2022-10-19T01:42:19.289Z,99.90
2022-10-19T01:44:54.364Z,99.90
2022-10-19T01:47:31.193Z,99.90
2022-10-19T01:50:16.152Z,99.90
2022-10-19T01:52:43.644Z,99.90
2022-10-19T01:55:13.659Z,99.90
2022-10-19T01:57:46.208Z,99.90
2022-10-19T02:00:16.155Z,99.90
2022-10-19T02:02:47.433Z,99.90
2022-10-19T02:05:17.280Z,99.90
2022-10-19T02:07:49.390Z,99.90
2022-10-19T02:10:16.337Z,99.90
2022-10-19T02:12:44.077Z,99.90
2022-10-19T02:15:15.799Z,99.90
2022-10-19T02:17:47.122Z,99.90
2022-10-19T02:20:15.690Z,99.90
2022-10-19T02:22:42.838Z,99.90
2022-10-19T02:25:10.560Z,99.90
2022-10-19T02:27:41.830Z,99.90
2022-10-19T02:30:11.546Z,99.90
2022-10-19T02:32:38.657Z,99.90
2022-10-19T02:35:06.195Z,99.90
2022-10-19T02:37:33.531Z,99.90
2022-10-19T02:40:01.283Z,99.90
2022-10-19T02:42:32.850Z,99.90
2022-10-19T02:45:09.407Z,99.90
2022-10-19T02:47:42.766Z,99.90
2022-10-19T02:50:11.071Z,99.90
2022-10-19T02:52:41.524Z,99.90
2022-10-19T02:55:09.178Z,99.90
2022-10-19T02:57:36.525Z,99.90
2022-10-19T03:00:08.505Z,99.90
2022-10-19T03:02:35.706Z,99.90
2022-10-19T03:05:03.103Z,99.90
2022-10-19T03:07:30.228Z,99.90
2022-10-19T03:09:57.080Z,99.90
2022-10-19T03:12:24.032Z,99.90
2022-10-19T03:14:50.891Z,99.90
2022-10-19T03:17:17.825Z,99.90
2022-10-19T03:19:45.069Z,99.90
2022-10-19T03:22:14.309Z,99.90
2022-10-19T03:24:41.227Z,99.90
2022-10-19T03:27:08.208Z,99.90
2022-10-19T03:29:35.148Z,99.90
2022-10-19T03:32:01.983Z,99.90
2022-10-19T03:34:28.890Z,99.90
2022-10-19T03:36:56.840Z,99.90
2022-10-19T03:39:23.654Z,99.90
2022-10-19T03:41:50.648Z,99.90
2022-10-19T03:44:17.642Z,99.90
2022-10-19T03:46:44.472Z,99.90
2022-10-19T03:49:12.211Z,99.90
2022-10-19T03:51:39.184Z,99.90
2022-10-19T03:54:08.748Z,99.90
2022-10-19T03:56:36.244Z,99.90
2022-10-19T03:59:05.157Z,99.90
2022-10-19T04:01:34.953Z,99.90
2022-10-19T04:04:04.562Z,99.90
2022-10-19T04:06:37.234Z,99.90
2022-10-19T04:09:06.136Z,99.90
2022-10-19T04:11:34.010Z,99.90
2022-10-19T04:14:01.731Z,99.90
2022-10-19T04:16:29.909Z,99.90
2022-10-19T04:18:57.262Z,99.90
2022-10-19T04:21:38.577Z,99.90
2022-10-19T04:24:14.660Z,99.90
2022-10-19T04:26:47.018Z,99.90
2022-10-19T04:29:15.208Z,99.90
2022-10-19T04:31:42.234Z,99.90
2022-10-19T04:34:09.253Z,99.90
2022-10-19T04:36:40.532Z,99.90
2022-10-19T04:39:15.325Z,99.90
2022-10-19T04:41:42.415Z,99.90
2022-10-19T04:44:11.961Z,99.90
2022-10-19T04:46:39.506Z,99.90
2022-10-19T04:49:07.281Z,99.90
2022-10-19T04:51:53.872Z,99.90
2022-10-19T04:54:36.301Z,99.90
2022-10-19T04:57:23.767Z,99.90
2022-10-19T05:00:35.063Z,99.90
2022-10-19T05:06:32.152Z,99.90
2022-10-19T05:10:04.981Z,99.90
2022-10-19T05:12:51.864Z,99.90
2022-10-19T05:16:51.888Z,99.90
2022-10-19T05:19:17.701Z,99.90
2022-10-19T05:21:45.049Z,99.90
2022-10-19T05:24:43.208Z,99.90
2022-10-19T05:30:04.066Z,99.90
2022-10-19T05:32:51.726Z,99.90
2022-10-19T05:38:16.607Z,99.90
2022-10-19T05:51:20.077Z,99.90
2022-10-19T05:54:00.066Z,99.90
2022-10-19T05:56:30.060Z,99.90
2022-10-19T06:03:04.775Z,99.90
2022-10-19T06:10:06.965Z,99.90
2022-10-19T06:49:37.570Z,99.90
2022-10-19T06:52:18.507Z,99.90
2022-10-19T06:58:20.485Z,99.90
2022-10-19T07:01:13.137Z,99.90
2022-10-19T07:12:46.920Z,99.90
2022-10-19T07:15:49.566Z,99.90
2022-10-19T07:18:40.943Z,99.90
2022-10-19T07:22:03.219Z,99.90
2022-10-19T07:24:35.319Z,99.90
2022-10-19T07:28:24.145Z,99.90
2022-10-19T07:30:44.758Z,99.90
2022-10-19T07:53:21.551Z,99.90
2022-10-19T08:33:11.377Z,89.80
2022-10-19T08:33:28.864Z,88.10
2022-10-19T08:37:19.674Z,88.00
2022-10-19T08:52:41.734Z,99.90
2022-10-19T08:55:30.906Z,99.90
2022-10-19T08:58:28.008Z,99.90
2022-10-19T09:01:13.646Z,99.90
2022-10-19T09:03:55.746Z,99.90
2022-10-19T09:06:35.205Z,99.90
2022-10-19T09:13:21.780Z,99.90
2022-10-19T09:16:47.713Z,99.90
2022-10-19T09:19:31.450Z,99.90
2022-10-19T09:25:26.336Z,99.90
2022-10-19T09:28:27.314Z,99.90
2022-10-19T09:31:21.940Z,99.90
2022-10-19T09:34:57.526Z,99.90
2022-10-19T09:37:27.419Z,99.90
2022-10-19T09:40:11.276Z,99.90
2022-10-19T09:42:40.402Z,99.90
2022-10-19T09:45:20.535Z,99.90
2022-10-19T09:48:14.880Z,99.90
2022-10-19T09:50:49.427Z,99.90
2022-10-19T09:53:25.515Z,99.90
2022-10-19T09:56:12.003Z,99.90
2022-10-19T09:58:50.254Z,99.90
2022-10-19T10:01:41.448Z,99.90
2022-10-19T10:04:24.533Z,99.90
2022-10-19T10:07:00.469Z,99.90
2022-10-19T10:09:31.375Z,99.90
2022-10-19T10:12:03.543Z,99.90
2022-10-19T10:14:35.601Z,99.30
2022-10-19T10:17:31.627Z,96.50
2022-10-19T10:20:01.379Z,94.00
2022-10-19T10:22:33.655Z,93.80
2022-10-19T10:25:01.485Z,90.60
2022-10-19T10:27:33.529Z,93.50
2022-10-19T10:30:28.200Z,96.00
2022-10-19T10:36:17.298Z,99.60
2022-10-19T10:38:50.504Z,99.90
2022-10-19T10:41:26.459Z,99.90
2022-10-19T10:44:04.619Z,98.10
2022-10-19T10:46:40.895Z,95.30
2022-10-19T10:49:23.709Z,98.50
2022-10-19T10:52:34.546Z,98.70
2022-10-19T10:55:20.925Z,98.50
2022-10-19T10:58:00.226Z,99.00
2022-10-19T11:00:50.478Z,97.90
2022-10-19T11:04:35.226Z,97.20
2022-10-19T11:06:54.828Z,97.30
2022-10-19T11:10:07.354Z,97.00
2022-10-19T11:14:13.318Z,96.70
2022-10-19T11:16:43.058Z,96.30
2022-10-19T11:20:37.253Z,97.30
2022-10-19T11:26:59.598Z,99.80
2022-10-19T11:29:49.784Z,96.90
2022-10-19T11:33:22.278Z,94.70
2022-10-19T11:39:39.355Z,93.10
2022-10-19T11:45:50.906Z,92.80
2022-10-19T11:52:07.843Z,94.00
2022-10-19T12:07:35.788Z,90.30
2022-10-19T12:10:19.955Z,90.80
2022-10-19T12:13:21.120Z,90.50
2022-10-19T12:18:52.118Z,91.80
2022-10-19T12:21:31.313Z,92.20
2022-10-19T12:24:06.479Z,92.20
2022-10-19T12:26:42.161Z,91.30
2022-10-19T12:29:34.151Z,91.00
2022-10-19T12:50:41.529Z,96.60
2022-10-19T12:56:07.013Z,96.80
2022-10-19T12:58:57.159Z,96.80
2022-10-19T13:01:37.215Z,97.30
2022-10-19T13:04:21.654Z,97.20
2022-10-19T13:07:00.775Z,97.60
2022-10-19T13:09:42.915Z,97.30
2022-10-19T13:12:23.547Z,97.70
2022-10-19T13:17:50.913Z,97.00
2022-10-19T13:20:28.913Z,96.90
2022-10-19T13:23:12.986Z,97.80
2022-10-19T13:25:42.332Z,98.20
2022-10-19T13:28:11.151Z,98.70
2022-10-19T13:30:39.389Z,98.10
2022-10-19T13:33:35.272Z,98.40
2022-10-19T13:36:05.381Z,98.90
2022-10-19T13:38:51.211Z,99.10
2022-10-19T13:41:45.388Z,99.50
2022-10-19T13:44:17.205Z,99.30
2022-10-19T13:46:59.394Z,99.90
2022-10-19T13:50:12.028Z,99.70
2022-10-19T13:53:03.705Z,99.90
2022-10-19T13:56:00.520Z,99.90
2022-10-19T13:58:48.753Z,99.90
2022-10-19T14:01:37.514Z,99.90
2022-10-19T14:04:47.128Z,99.90
2022-10-19T14:07:27.772Z,99.80
2022-10-19T14:10:32.660Z,99.90
2022-10-19T14:13:14.429Z,99.90
2022-10-19T14:15:55.232Z,99.90
2022-10-19T14:18:38.584Z,99.90
2022-10-19T14:21:10.566Z,99.90
2022-10-19T14:23:43.559Z,99.90
2022-10-19T14:26:24.955Z,99.90
2022-10-19T14:28:57.662Z,99.90
2022-10-19T14:31:38.065Z,99.90
2022-10-19T14:34:09.292Z,99.90
2022-10-19T14:36:45.505Z,99.90
2022-10-19T14:39:32.579Z,99.90
2022-10-19T14:42:07.085Z,99.90
2022-10-19T14:44:43.044Z,99.90
2022-10-19T14:47:27.226Z,99.90
2022-10-19T14:49:55.432Z,99.90
2022-10-19T14:52:35.476Z,99.90
2022-10-19T14:55:16.857Z,99.90
2022-10-19T14:57:49.971Z,99.90
2022-10-19T15:00:23.350Z,99.90
2022-10-19T15:03:07.114Z,99.90
2022-10-19T15:05:37.946Z,99.90
2022-10-19T15:08:15.623Z,99.90
2022-10-19T15:10:48.134Z,99.90
2022-10-19T15:13:27.089Z,99.90
2022-10-19T15:15:57.054Z,99.90
2022-10-19T15:18:48.297Z,99.90
2022-10-19T15:21:19.599Z,99.90
2022-10-19T15:23:52.786Z,99.90
2022-10-19T15:26:27.691Z,99.90
2022-10-19T15:29:08.339Z,99.90
2022-10-19T15:31:36.236Z,99.90
2022-10-19T15:34:05.513Z,99.90
2022-10-19T15:36:33.502Z,99.90
2022-10-19T15:39:18.344Z,99.90
2022-10-19T15:41:55.519Z,99.90
2022-10-19T15:44:43.586Z,99.90
2022-10-19T15:47:21.524Z,99.90
2022-10-19T15:49:53.363Z,99.90
2022-10-19T15:52:23.845Z,99.90
2022-10-19T15:54:57.770Z,99.90
2022-10-19T15:57:37.832Z,99.90
2022-10-19T16:00:13.938Z,99.90
2022-10-19T16:02:48.369Z,99.90
2022-10-19T16:05:18.814Z,99.90
2022-10-19T16:07:47.617Z,99.90
2022-10-19T16:10:22.313Z,99.90
2022-10-19T16:12:53.997Z,99.90
2022-10-19T16:15:32.534Z,99.90
2022-10-19T16:18:01.176Z,99.90
2022-10-19T16:20:30.158Z,99.90
2022-10-19T16:23:01.215Z,99.90
2022-10-19T16:25:29.096Z,99.90
2022-10-19T16:28:04.920Z,99.90
2022-10-19T16:30:32.819Z,99.90
2022-10-19T16:33:00.350Z,99.90
2022-10-19T16:35:27.693Z,99.90
2022-10-19T16:40:30.055Z,99.90
2022-10-19T16:42:59.450Z,99.90
2022-10-19T16:45:41.956Z,99.90
2022-10-19T16:48:15.107Z,99.90
2022-10-19T16:53:18.115Z,99.90
2022-10-19T16:55:45.810Z,99.90
2022-10-19T16:58:13.738Z,99.90
2022-10-19T17:00:48.187Z,99.90
2022-10-19T17:03:15.550Z,99.90
2022-10-19T17:05:44.159Z,99.90
2022-10-19T17:08:12.103Z,99.90
2022-10-19T17:10:39.773Z,99.90
2022-10-19T17:13:07.392Z,99.90
2022-10-19T17:15:43.407Z,99.90
2022-10-19T17:18:22.885Z,99.90
2022-10-19T17:20:53.214Z,99.90
2022-10-19T17:23:21.599Z,99.90
2022-10-19T17:25:49.307Z,99.90
2022-10-19T17:28:16.601Z,99.90
2022-10-19T17:30:44.604Z,99.90
2022-10-19T17:33:14.212Z,99.90
2022-10-19T17:35:44.486Z,99.90
2022-10-19T17:38:11.856Z,99.90
2022-10-19T17:40:39.572Z,99.90
2022-10-19T17:43:07.216Z,99.90
2022-10-19T17:45:34.972Z,99.90
2022-10-19T17:48:02.630Z,99.90
2022-10-19T17:50:29.953Z,99.90
2022-10-19T17:52:59.079Z,99.90
2022-10-19T17:55:27.236Z,99.90
2022-10-19T17:57:54.315Z,99.90
2022-10-19T18:00:21.529Z,99.90
2022-10-19T18:02:49.289Z,99.90
2022-10-19T18:05:17.122Z,99.90
2022-10-19T18:07:45.006Z,99.90
2022-10-19T18:10:13.578Z,99.90
2022-10-19T18:12:40.905Z,99.90
2022-10-19T18:15:08.700Z,99.90
2022-10-19T18:17:36.690Z,99.90
2022-10-19T18:20:04.443Z,99.90
2022-10-19T18:22:31.825Z,99.90
2022-10-19T18:25:01.417Z,99.90
2022-10-19T18:27:28.587Z,99.90
2022-10-19T18:29:55.942Z,99.90
2022-10-19T18:32:23.061Z,99.90
2022-10-19T18:34:50.290Z,99.90
2022-10-19T18:37:17.649Z,99.90
2022-10-19T18:39:44.839Z,99.90
2022-10-19T18:42:13.051Z,99.90
2022-10-19T18:44:40.395Z,99.90
2022-10-19T18:47:07.814Z,99.90
2022-10-19T18:49:34.782Z,99.90
2022-10-19T18:52:01.691Z,99.90
2022-10-19T18:54:28.552Z,99.90
2022-10-19T18:56:55.843Z,99.90
2022-10-19T18:59:23.245Z,99.90
2022-10-19T19:01:50.635Z,99.90
2022-10-19T19:04:18.164Z,99.90
2022-10-19T19:06:45.313Z,99.90
2022-10-19T19:09:13.118Z,99.90
2022-10-19T19:11:41.631Z,99.90
2022-10-19T19:14:13.533Z,99.90
2022-10-19T19:16:41.733Z,99.90
2022-10-19T19:19:10.200Z,99.90
2022-10-19T19:21:37.914Z,99.90
2022-10-19T19:24:07.050Z,99.90
2022-10-19T19:26:38.765Z,99.90
2022-10-19T19:29:06.345Z,99.90
2022-10-19T19:31:33.881Z,99.90
2022-10-19T19:34:02.061Z,99.90
2022-10-19T19:36:29.561Z,99.90
2022-10-19T19:38:59.368Z,99.90
2022-10-19T19:41:26.387Z,99.90
2022-10-19T19:43:53.357Z,99.90
2022-10-19T19:46:20.671Z,99.90
2022-10-19T19:48:48.577Z,99.90
2022-10-19T19:51:18.625Z,99.90
2022-10-19T19:53:47.214Z,99.90
2022-10-19T19:56:15.370Z,99.90
2022-10-19T19:58:43.989Z,99.90
2022-10-19T20:01:12.525Z,99.90
2022-10-19T20:03:41.553Z,99.90
2022-10-19T20:06:09.418Z,99.90
2022-10-19T20:08:37.103Z,99.90
2022-10-19T20:11:07.491Z,99.90
2022-10-19T20:13:35.754Z,99.90
2022-10-19T20:16:15.307Z,99.90
2022-10-19T20:18:45.638Z,99.90
2022-10-19T20:21:13.498Z,99.90
2022-10-19T20:23:41.013Z,99.90
2022-10-19T20:26:21.682Z,99.90
2022-10-19T20:28:49.601Z,99.90
2022-10-19T20:31:17.163Z,99.90
2022-10-19T20:33:45.097Z,99.90
2022-10-19T20:36:20.643Z,99.90
2022-10-19T20:38:53.204Z,99.90
2022-10-19T20:41:22.254Z,99.90
2022-10-19T20:43:50.038Z,99.90
2022-10-19T20:46:22.520Z,99.90
2022-10-19T20:48:50.545Z,99.90
2022-10-19T20:51:20.241Z,99.90
2022-10-19T20:53:49.636Z,99.90
2022-10-19T20:56:19.723Z,99.90
2022-10-19T20:58:47.293Z,99.90
2022-10-19T21:01:18.458Z,99.90
2022-10-19T21:03:52.479Z,99.90
2022-10-19T21:06:21.142Z,99.90
2022-10-19T21:08:49.313Z,99.90
2022-10-19T21:11:34.726Z,99.90
2022-10-19T21:14:03.983Z,99.90
2022-10-19T21:16:33.724Z,99.90
2022-10-19T21:19:02.194Z,99.90
2022-10-19T21:21:32.522Z,99.90
2022-10-19T21:24:04.659Z,99.90
2022-10-19T21:26:33.753Z,99.90
2022-10-19T21:29:01.715Z,99.90
2022-10-19T21:31:29.271Z,99.90
2022-10-19T21:33:56.487Z,99.90
2022-10-19T21:36:27.742Z,99.90
2022-10-19T21:38:55.123Z,99.90
2022-10-19T21:41:26.168Z,99.90
2022-10-19T21:43:54.924Z,99.90
2022-10-19T21:46:23.060Z,99.90
2022-10-19T21:48:51.209Z,99.90
2022-10-19T21:51:32.302Z,99.90
2022-10-19T21:53:59.906Z,99.90
2022-10-19T21:56:28.128Z,99.90
2022-10-19T21:58:55.690Z,99.90
2022-10-19T22:01:26.091Z,99.90
2022-10-19T22:04:13.796Z,99.90
2022-10-19T22:06:40.853Z,99.90
2022-10-19T22:09:09.823Z,99.90
2022-10-19T22:11:37.014Z,99.90
2022-10-19T22:14:05.243Z,99.90
2022-10-19T22:16:35.117Z,99.90
2022-10-19T22:19:02.600Z,99.90
2022-10-19T22:21:31.597Z,99.90
2022-10-19T22:24:07.307Z,99.90
2022-10-19T22:26:40.077Z,99.90
2022-10-19T22:29:07.725Z,99.90
2022-10-19T22:31:35.584Z,99.90
2022-10-19T22:34:13.890Z,99.90
2022-10-19T22:36:40.887Z,99.90
2022-10-19T22:39:08.543Z,99.90
2022-10-19T22:41:35.810Z,99.90
2022-10-19T22:44:02.938Z,99.90
2022-10-19T22:46:29.861Z,99.90
2022-10-19T22:48:56.833Z,99.90
2022-10-19T22:51:23.734Z,99.90
2022-10-19T22:53:50.550Z,99.90
2022-10-19T22:56:17.399Z,99.90
2022-10-19T22:58:44.268Z,99.90
2022-10-19T23:01:13.264Z,99.90
2022-10-19T23:03:40.608Z,99.90
2022-10-19T23:06:09.823Z,99.90
2022-10-19T23:08:37.181Z,99.90
2022-10-19T23:11:04.293Z,99.90
2022-10-19T23:13:31.211Z,99.90
2022-10-19T23:15:58.244Z,99.90
2022-10-19T23:18:25.248Z,99.90
2022-10-19T23:21:02.302Z,99.90
2022-10-19T23:23:30.391Z,99.90
2022-10-19T23:26:15.800Z,99.90
2022-10-19T23:28:45.079Z,99.90
2022-10-19T23:31:14.991Z,99.90
2022-10-19T23:33:42.941Z,99.90
2022-10-19T23:36:09.876Z,99.90
2022-10-19T23:38:36.764Z,99.90
2022-10-19T23:41:03.848Z,99.90
2022-10-19T23:43:30.802Z,99.90
2022-10-19T23:45:57.668Z,99.90
2022-10-19T23:49:20.788Z,99.90
2022-10-19T23:51:47.652Z,99.90
2022-10-19T23:54:14.647Z,99.90
2022-10-19T23:56:41.573Z,99.90
2022-10-19T23:59:09.836Z,99.90
